createdAt,value
2019-02-14T00:00:55.613Z,11.67
2019-02-14T00:03:25.780Z,11.73
2019-02-14T00:05:56.647Z,11.97
2019-02-14T00:08:28.049Z,11.30
2019-02-14T00:10:59.445Z,11.33
2019-02-14T00:13:30.060Z,11.13
2019-02-14T00:16:02.225Z,11.13
2019-02-14T00:18:32.733Z,10.53
2019-02-14T00:21:03.339Z,10.93
2019-02-14T00:23:35.225Z,11.67
2019-02-14T00:26:05.518Z,11.00
2019-02-14T00:28:35.680Z,10.57
2019-02-14T00:31:07.863Z,11.00
2019-02-14T00:33:39.055Z,11.10
2019-02-14T00:36:10.069Z,10.73
2019-02-14T00:38:40.630Z,11.63
2019-02-14T00:41:11.493Z,10.60
2019-02-14T00:43:42.492Z,10.53
2019-02-14T00:46:15.296Z,11.00
2019-02-14T00:48:45.496Z,10.70
2019-02-14T00:51:16.804Z,11.40
2019-02-14T00:53:46.996Z,11.00
2019-02-14T00:56:17.537Z,11.00
2019-02-14T00:58:47.741Z,10.70
2019-02-14T01:01:18.907Z,10.83
2019-02-14T01:03:50.750Z,11.07
2019-02-14T01:06:21.852Z,10.83
2019-02-14T01:08:53.467Z,11.20
2019-02-14T01:11:24.510Z,11.30
2019-02-14T01:13:55.134Z,11.13
2019-02-14T01:16:26.707Z,10.63
2019-02-14T01:18:58.909Z,11.37
2019-02-14T01:21:30.332Z,11.37
2019-02-14T01:24:01.720Z,11.73
2019-02-14T01:26:32.546Z,11.40
2019-02-14T01:29:05.468Z,11.73
2019-02-14T01:31:36.115Z,11.13
2019-02-14T01:34:08.011Z,10.87
2019-02-14T01:36:38.207Z,11.67
2019-02-14T01:39:08.438Z,11.40
2019-02-14T01:41:39.904Z,11.37
2019-02-14T01:44:10.506Z,10.77
2019-02-14T01:46:42.164Z,11.57
2019-02-14T01:49:14.677Z,11.37
2019-02-14T01:51:45.797Z,11.60
2019-02-14T01:54:18.689Z,10.83
2019-02-14T01:56:48.976Z,11.47
2019-02-14T01:59:19.542Z,11.37
2019-02-14T02:01:50.271Z,10.60
2019-02-14T02:04:21.234Z,11.30
2019-02-14T02:06:52.928Z,11.20
2019-02-14T02:09:23.497Z,11.33
2019-02-14T02:11:54.213Z,11.60
2019-02-14T02:14:24.384Z,10.77
2019-02-14T02:16:54.574Z,11.10
2019-02-14T02:19:25.574Z,11.40
2019-02-14T02:21:57.750Z,11.10
2019-02-14T02:24:31.530Z,11.13
2019-02-14T02:27:02.893Z,11.20
2019-02-14T02:29:34.220Z,11.37
2019-02-14T02:32:04.946Z,11.07
2019-02-14T02:34:36.650Z,10.60
2019-02-14T02:37:07.284Z,11.33
2019-02-14T02:39:37.464Z,11.57
2019-02-14T02:42:07.981Z,11.27
2019-02-14T02:44:38.723Z,11.23
2019-02-14T02:47:10.568Z,11.77
2019-02-14T02:49:41.512Z,11.33
2019-02-14T02:52:14.310Z,11.03
2019-02-14T02:54:45.371Z,11.13
2019-02-14T02:57:17.954Z,11.20
2019-02-14T02:59:49.128Z,11.33
2019-02-14T03:02:19.300Z,10.67
2019-02-14T03:04:49.540Z,10.90
2019-02-14T03:07:20.586Z,10.90
2019-02-14T03:09:50.774Z,11.17
2019-02-14T03:12:23.301Z,11.50
2019-02-14T03:14:54.390Z,11.63
2019-02-14T03:17:24.545Z,11.53
2019-02-14T03:19:55.723Z,11.23
2019-02-14T03:22:25.898Z,11.30
2019-02-14T03:24:58.531Z,11.23
2019-02-14T03:27:30.717Z,11.40
2019-02-14T03:30:01.431Z,10.90
2019-02-14T03:32:32.246Z,11.17
2019-02-14T03:35:02.553Z,11.93
2019-02-14T03:37:33.303Z,11.73
2019-02-14T03:40:05.831Z,11.83
2019-02-14T03:42:41.795Z,11.57
2019-02-14T03:45:17.539Z,11.70
2019-02-14T03:47:48.953Z,11.53
2019-02-14T03:50:19.521Z,11.73
2019-02-14T03:52:53.256Z,12.00
2019-02-14T03:55:25.774Z,12.20
2019-02-14T03:57:55.981Z,11.47
2019-02-14T04:00:28.998Z,11.83
2019-02-14T04:02:59.783Z,12.57
2019-02-14T04:05:32.349Z,11.70
2019-02-14T04:08:07.703Z,12.40
2019-02-14T04:10:37.983Z,11.93
2019-02-14T04:13:09.052Z,11.40
2019-02-14T04:15:40.803Z,11.70
2019-02-14T04:18:11.064Z,12.10
2019-02-14T04:20:41.749Z,12.40
2019-02-14T04:23:12.346Z,11.77
2019-02-14T04:25:43.988Z,12.10
2019-02-14T04:28:14.686Z,11.37
2019-02-14T04:30:47.194Z,12.53
2019-02-14T04:33:19.113Z,11.17
2019-02-14T04:35:53.979Z,12.20
2019-02-14T04:38:24.971Z,11.90
2019-02-14T04:40:55.698Z,12.43
2019-02-14T04:43:26.432Z,12.23
2019-02-14T04:45:57.137Z,11.97
2019-02-14T04:48:27.304Z,11.73
2019-02-14T04:50:58.426Z,11.70
2019-02-14T04:53:28.613Z,11.73
2019-02-14T04:55:58.837Z,12.10
2019-02-14T04:58:29.059Z,12.40
2019-02-14T05:01:01.093Z,11.03
2019-02-14T05:03:31.656Z,12.60
2019-02-14T05:06:03.049Z,11.67
2019-02-14T05:08:33.229Z,12.60
2019-02-14T05:11:03.453Z,12.07
2019-02-14T05:13:34.044Z,11.50
2019-02-14T05:16:04.643Z,11.67
2019-02-14T05:18:35.190Z,11.97
2019-02-14T05:21:06.745Z,12.33
2019-02-14T05:23:37.412Z,11.60
2019-02-14T05:26:10.409Z,10.97
2019-02-14T05:28:42.869Z,11.30
2019-02-14T05:31:13.879Z,10.83
2019-02-14T05:33:45.385Z,10.97
2019-02-14T05:36:27.082Z,11.43
2019-02-14T05:38:58.513Z,11.00
2019-02-14T05:41:28.679Z,11.00
2019-02-14T05:43:59.951Z,11.33
2019-02-14T05:46:31.385Z,10.80
2019-02-14T05:49:02.223Z,11.83
2019-02-14T05:51:32.425Z,11.33
2019-02-14T05:54:02.670Z,11.80
2019-02-14T05:56:36.800Z,11.10
2019-02-14T05:59:08.764Z,11.27
2019-02-14T06:01:41.312Z,11.20
2019-02-14T06:04:13.702Z,11.47
2019-02-14T06:06:46.673Z,11.50
2019-02-14T06:09:20.003Z,11.53
2019-02-14T06:11:53.633Z,11.93
2019-02-14T06:14:24.228Z,11.40
2019-02-14T06:16:55.657Z,11.87
2019-02-14T06:19:29.322Z,11.73
2019-02-14T06:22:00.267Z,11.97
2019-02-14T06:24:31.896Z,11.90
2019-02-14T06:27:04.329Z,11.73
2019-02-14T06:29:37.562Z,11.23
2019-02-14T06:32:08.098Z,12.53
2019-02-14T06:34:38.721Z,11.73
2019-02-14T06:37:09.962Z,11.53
2019-02-14T06:39:41.458Z,11.27
2019-02-14T06:42:12.021Z,11.00
2019-02-14T06:44:42.745Z,11.60
2019-02-14T06:47:13.330Z,11.47
2019-02-14T06:49:43.498Z,11.43
2019-02-14T06:52:15.882Z,11.33
2019-02-14T06:54:48.319Z,11.67
2019-02-14T06:57:19.186Z,12.10
2019-02-14T06:59:50.708Z,11.23
2019-02-14T07:02:21.321Z,11.63
2019-02-14T07:04:52.849Z,11.33
2019-02-14T07:07:25.936Z,11.67
2019-02-14T07:09:59.601Z,11.57
2019-02-14T07:12:31.076Z,11.03
2019-02-14T07:15:03.385Z,11.27
2019-02-14T07:17:39.420Z,11.30
2019-02-14T07:20:13.647Z,10.87
2019-02-14T07:22:45.384Z,11.17
2019-02-14T07:25:23.650Z,10.93
2019-02-14T07:27:58.005Z,10.80
2019-02-14T07:30:31.680Z,11.00
2019-02-14T07:33:04.861Z,10.70
2019-02-14T07:35:36.709Z,12.10
2019-02-14T07:38:08.573Z,11.47
2019-02-14T07:40:39.682Z,11.27
2019-02-14T07:43:10.635Z,10.97
2019-02-14T07:45:42.706Z,11.13
2019-02-14T07:48:13.950Z,11.10
2019-02-14T07:50:45.411Z,11.00
2019-02-14T07:53:17.088Z,10.87
2019-02-14T07:55:51.222Z,10.87
2019-02-14T07:58:21.408Z,10.90
2019-02-14T08:00:53.365Z,11.10
2019-02-14T08:03:23.552Z,10.27
2019-02-14T08:05:55.345Z,10.53
2019-02-14T08:08:27.478Z,10.17
2019-02-14T08:10:58.824Z,11.17
2019-02-14T08:13:29.968Z,10.70
2019-02-14T08:16:00.503Z,10.60
2019-02-14T08:18:32.237Z,10.73
2019-02-14T08:21:02.940Z,10.97
2019-02-14T08:23:36.010Z,11.23
2019-02-14T08:26:10.835Z,11.20
2019-02-14T08:28:40.979Z,11.40
2019-02-14T08:31:13.693Z,11.33
2019-02-14T08:33:47.834Z,11.63
2019-02-14T08:36:22.502Z,11.77
2019-02-14T08:38:54.979Z,11.67
2019-02-14T08:41:37.563Z,11.90
2019-02-14T08:44:08.396Z,11.43
2019-02-14T08:47:03.504Z,12.57
2019-02-14T08:49:36.928Z,11.70
2019-02-14T08:52:09.562Z,12.53
2019-02-14T08:54:42.812Z,11.93
2019-02-14T08:57:13.886Z,11.70
2019-02-14T08:59:45.004Z,11.43
2019-02-14T09:02:16.305Z,11.27
2019-02-14T09:04:47.326Z,10.80
2019-02-14T09:07:19.623Z,10.47
2019-02-14T09:09:50.631Z,10.73
2019-02-14T09:12:21.995Z,10.00
2019-02-14T09:14:53.306Z,10.17
2019-02-14T09:17:24.695Z,10.93
2019-02-14T09:19:56.470Z,10.63
2019-02-14T09:22:27.806Z,9.63
2019-02-14T09:25:01.332Z,9.37
2019-02-14T09:27:40.411Z,10.27
2019-02-14T09:30:25.511Z,10.17
2019-02-14T09:32:57.009Z,9.93
2019-02-14T09:35:29.231Z,10.20
2019-02-14T09:38:03.437Z,9.87
2019-02-14T09:40:32.750Z,9.63
2019-02-14T09:43:03.776Z,9.97
2019-02-14T09:45:39.358Z,10.23
2019-02-14T09:48:10.737Z,9.93
2019-02-14T09:50:42.905Z,10.77
2019-02-14T09:53:14.118Z,11.10
2019-02-14T09:55:45.750Z,10.23
2019-02-14T09:58:20.306Z,9.53
2019-02-14T10:00:51.869Z,9.40
2019-02-14T10:03:23.778Z,10.00
2019-02-14T10:05:56.401Z,9.50
2019-02-14T10:08:29.909Z,10.83
2019-02-14T10:11:01.055Z,10.67
2019-02-14T10:13:33.004Z,10.03
2019-02-14T10:16:04.399Z,10.07
2019-02-14T10:18:38.156Z,11.93
2019-02-14T10:21:09.305Z,11.70
2019-02-14T10:23:40.746Z,11.07
2019-02-14T10:26:12.018Z,11.90
2019-02-14T10:28:43.204Z,11.20
2019-02-14T10:31:15.295Z,10.93
2019-02-14T10:33:47.789Z,10.73
2019-02-14T10:36:49.106Z,10.57
2019-02-14T10:39:22.632Z,9.70
2019-02-14T10:41:54.903Z,10.10
2019-02-14T10:44:27.050Z,10.43
2019-02-14T10:47:02.041Z,10.40
2019-02-14T10:49:32.673Z,10.97
2019-02-14T10:52:03.427Z,10.13
2019-02-14T10:54:34.823Z,10.20
2019-02-14T10:57:06.668Z,10.47
2019-02-14T10:59:41.283Z,10.87
2019-02-14T11:02:15.515Z,9.83
2019-02-14T11:04:48.813Z,10.50
2019-02-14T11:07:21.859Z,10.47
2019-02-14T11:09:52.030Z,9.90
2019-02-14T11:12:26.933Z,9.93
2019-02-14T11:14:59.871Z,9.77
2019-02-14T11:17:30.468Z,9.60
2019-02-14T11:20:03.048Z,9.67
2019-02-14T11:22:34.260Z,9.63
2019-02-14T11:25:06.263Z,9.03
2019-02-14T11:27:42.973Z,8.80
2019-02-14T11:30:17.891Z,9.70
2019-02-14T11:32:48.739Z,9.03
2019-02-14T11:35:22.549Z,9.27
2019-02-14T11:37:55.780Z,8.83
2019-02-14T11:40:34.104Z,8.77
2019-02-14T11:43:07.508Z,9.00
2019-02-14T11:45:39.963Z,9.20
2019-02-14T11:48:11.448Z,9.23
2019-02-14T11:50:42.290Z,9.37
2019-02-14T11:53:14.132Z,9.00
2019-02-14T11:55:45.662Z,9.20
2019-02-14T11:58:18.940Z,8.80
2019-02-14T12:00:49.451Z,9.17
2019-02-14T12:03:21.906Z,8.87
2019-02-14T12:06:02.152Z,9.07
2019-02-14T12:08:35.345Z,8.33
2019-02-14T12:11:09.954Z,8.80
2019-02-14T12:13:41.090Z,8.57
2019-02-14T12:16:12.562Z,8.57
2019-02-14T12:18:44.298Z,7.27
2019-02-14T12:21:18.408Z,6.73
2019-02-14T12:23:50.957Z,6.30
2019-02-14T12:26:23.028Z,6.33
2019-02-14T12:28:54.454Z,6.30
2019-02-14T12:31:26.064Z,5.47
2019-02-14T12:34:00.458Z,5.80
2019-02-14T12:36:32.011Z,5.23
2019-02-14T12:39:09.140Z,5.80
2019-02-14T12:41:40.440Z,5.80
2019-02-14T12:44:14.854Z,5.57
2019-02-14T12:46:48.140Z,5.57
2019-02-14T12:49:18.836Z,5.23
2019-02-14T12:51:53.909Z,6.03
2019-02-14T12:54:24.540Z,5.50
2019-02-14T12:56:55.072Z,6.03
2019-02-14T12:59:25.688Z,5.70
2019-02-14T13:02:01.588Z,5.60
2019-02-14T13:04:33.117Z,5.77
2019-02-14T13:07:04.214Z,5.90
2019-02-14T13:09:34.391Z,6.13
2019-02-14T13:12:06.603Z,6.07
2019-02-14T13:14:38.613Z,6.30
2019-02-14T13:17:20.599Z,6.63
2019-02-14T13:19:56.900Z,6.20
2019-02-14T13:22:28.357Z,6.20
2019-02-14T13:24:58.878Z,6.17
2019-02-14T13:27:35.705Z,5.77
2019-02-14T13:30:09.420Z,6.00
2019-02-14T13:32:41.345Z,5.53
2019-02-14T13:35:23.536Z,5.47
2019-02-14T13:37:54.642Z,5.27
2019-02-14T13:40:29.390Z,5.20
2019-02-14T13:43:00.912Z,5.23
2019-02-14T13:45:34.345Z,5.30
2019-02-14T13:48:07.686Z,5.60
2019-02-14T13:50:38.209Z,4.77
2019-02-14T13:53:09.682Z,5.40
2019-02-14T13:55:47.369Z,4.93
2019-02-14T13:58:23.608Z,4.90
2019-02-14T14:00:54.617Z,4.70
2019-02-14T14:03:30.686Z,4.37
2019-02-14T14:06:04.095Z,4.37
2019-02-14T14:08:35.234Z,4.40
2019-02-14T14:11:05.388Z,4.53
2019-02-14T14:13:37.034Z,4.70
2019-02-14T14:16:07.645Z,4.90
2019-02-14T14:18:38.514Z,4.77
2019-02-14T14:21:10.863Z,4.90
2019-02-14T14:23:44.715Z,5.10
2019-02-14T14:26:17.999Z,5.70
2019-02-14T14:28:48.903Z,5.37
2019-02-14T14:31:21.055Z,5.13
2019-02-14T14:33:52.808Z,6.40
2019-02-14T14:36:25.884Z,5.40
2019-02-14T14:38:56.567Z,6.17
2019-02-14T14:41:26.762Z,6.10
2019-02-14T14:44:26.770Z,5.83
2019-02-14T14:47:04.818Z,6.57
2019-02-14T14:49:37.316Z,6.47
2019-02-14T14:52:08.223Z,5.80
2019-02-14T14:54:40.177Z,5.93
2019-02-14T14:57:10.761Z,6.20
2019-02-14T14:59:43.850Z,5.97
2019-02-14T15:02:14.399Z,5.60
2019-02-14T15:04:46.058Z,5.60
2019-02-14T15:07:17.967Z,4.03
2019-02-14T15:09:57.333Z,4.80
2019-02-14T15:12:20.770Z,5.30
2019-02-14T15:14:53.483Z,4.97
2019-02-14T15:17:26.085Z,4.97
2019-02-14T15:20:00.506Z,4.30
2019-02-14T15:22:30.636Z,3.57
2019-02-14T15:25:01.824Z,3.27
2019-02-14T15:27:32.871Z,2.80
2019-02-14T15:30:03.205Z,3.03
2019-02-14T15:32:35.984Z,3.07
2019-02-14T15:35:09.281Z,2.90
2019-02-14T15:37:44.541Z,3.00
2019-02-14T15:40:15.613Z,3.23
2019-02-14T15:42:46.174Z,2.80
2019-02-14T15:45:22.461Z,3.10
2019-02-14T15:47:53.090Z,2.97
2019-02-14T15:50:27.887Z,3.33
2019-02-14T15:53:00.577Z,2.97
2019-02-14T15:55:31.433Z,3.27
2019-02-14T15:58:07.324Z,3.53
2019-02-14T16:00:41.217Z,3.60
2019-02-14T16:03:17.855Z,2.93
2019-02-14T16:05:51.301Z,3.10
2019-02-14T16:08:23.921Z,4.50
2019-02-14T16:10:55.883Z,3.97
2019-02-14T16:13:26.153Z,3.90
2019-02-14T16:15:58.764Z,3.80
2019-02-14T16:18:29.493Z,3.60
2019-02-14T16:21:03.542Z,3.20
2019-02-14T16:23:34.464Z,3.43
2019-02-14T16:26:06.045Z,3.40
2019-02-14T16:28:41.085Z,2.90
2019-02-14T16:31:16.278Z,2.90
2019-02-14T16:33:47.322Z,3.17
2019-02-14T16:36:20.622Z,2.83
2019-02-14T16:38:52.301Z,2.60
2019-02-14T16:41:24.074Z,2.50
2019-02-14T16:43:54.789Z,2.60
2019-02-14T16:46:27.139Z,2.80
2019-02-14T16:48:57.331Z,2.90
2019-02-14T16:51:27.487Z,2.70
2019-02-14T16:53:59.404Z,2.67
2019-02-14T16:56:30.499Z,3.30
2019-02-14T16:59:00.895Z,3.33
2019-02-14T17:01:33.206Z,3.07
2019-02-14T17:04:04.856Z,3.60
2019-02-14T17:06:36.652Z,3.50
2019-02-14T17:09:10.412Z,5.10
2019-02-14T17:11:42.824Z,5.27
2019-02-14T17:14:13.399Z,5.43
2019-02-14T17:16:44.341Z,5.43
2019-02-14T17:19:19.221Z,5.33
2019-02-14T17:21:49.398Z,5.13
2019-02-14T17:24:21.801Z,5.23
2019-02-14T17:26:54.803Z,4.97
2019-02-14T17:29:26.299Z,4.47
2019-02-14T17:31:57.504Z,3.70
2019-02-14T17:34:27.732Z,3.87
2019-02-14T17:37:12.917Z,3.73
2019-02-14T17:39:50.705Z,4.33
2019-02-14T17:42:22.442Z,4.20
2019-02-14T17:44:55.976Z,4.77
2019-02-14T17:47:28.478Z,4.97
2019-02-14T17:50:02.604Z,4.20
2019-02-14T17:52:33.236Z,4.40
2019-02-14T17:55:06.503Z,4.20
2019-02-14T17:57:39.791Z,4.10
2019-02-14T18:00:11.766Z,3.90
2019-02-14T18:02:44.531Z,3.90
2019-02-14T18:05:16.394Z,4.00
2019-02-14T18:07:46.570Z,3.53
2019-02-14T18:10:19.643Z,3.87
2019-02-14T18:12:51.369Z,3.67
2019-02-14T18:15:21.946Z,3.70
2019-02-14T18:17:54.192Z,3.90
2019-02-14T18:20:25.657Z,3.70
2019-02-14T18:22:57.578Z,3.80
2019-02-14T18:25:28.149Z,4.10
2019-02-14T18:28:01.144Z,4.40
2019-02-14T18:30:32.102Z,4.23
2019-02-14T18:33:03.119Z,4.23
2019-02-14T18:35:34.064Z,4.10
2019-02-14T18:38:06.732Z,5.00
2019-02-14T18:40:40.853Z,4.50
2019-02-14T18:43:17.245Z,4.87
2019-02-14T18:45:48.575Z,5.10
2019-02-14T18:48:19.176Z,5.40
2019-02-14T18:50:50.424Z,5.37
2019-02-14T18:53:21.275Z,5.27
2019-02-14T18:55:52.859Z,5.53
2019-02-14T18:58:26.852Z,5.73
2019-02-14T19:01:02.722Z,5.37
2019-02-14T19:03:36.145Z,5.30
2019-02-14T19:06:07.683Z,6.10
2019-02-14T19:08:43.565Z,5.67
2019-02-14T19:11:21.001Z,5.80
2019-02-14T19:13:57.782Z,5.53
2019-02-14T19:16:29.523Z,5.00
2019-02-14T19:18:59.703Z,4.87
2019-02-14T19:21:29.988Z,4.70
2019-02-14T19:24:01.060Z,4.50
2019-02-14T19:26:33.048Z,4.60
2019-02-14T19:29:07.977Z,4.50
2019-02-14T19:31:39.020Z,5.13
2019-02-14T19:34:10.455Z,5.40
2019-02-14T19:36:40.983Z,5.40
2019-02-14T19:39:12.101Z,5.10
2019-02-14T19:41:47.781Z,5.50
2019-02-14T19:44:19.529Z,5.20
2019-02-14T19:46:50.196Z,5.63
2019-02-14T19:49:20.384Z,5.27
2019-02-14T19:51:53.229Z,4.87
2019-02-14T19:54:28.623Z,4.63
2019-02-14T19:57:01.224Z,4.93
2019-02-14T19:59:34.236Z,5.33
2019-02-14T20:02:07.868Z,4.83
2019-02-14T20:04:43.644Z,4.87
2019-02-14T20:07:15.059Z,4.70
2019-02-14T20:09:47.405Z,4.80
2019-02-14T20:12:17.812Z,5.00
2019-02-14T20:14:50.795Z,4.83
2019-02-14T20:17:28.975Z,4.63
2019-02-14T20:20:01.247Z,4.73
2019-02-14T20:22:31.847Z,4.53
2019-02-14T20:25:03.307Z,4.63
2019-02-14T20:27:36.381Z,4.70
2019-02-14T20:30:09.858Z,4.93
2019-02-14T20:32:40.033Z,5.17
2019-02-14T20:35:11.052Z,4.80
2019-02-14T20:37:41.689Z,4.70
2019-02-14T20:40:15.967Z,5.03
2019-02-14T20:42:48.440Z,5.40
2019-02-14T20:45:22.757Z,4.90
2019-02-14T20:47:57.062Z,5.43
2019-02-14T20:50:26.583Z,5.10
2019-02-14T20:52:56.744Z,5.27
2019-02-14T20:55:30.867Z,5.53
2019-02-14T20:58:06.799Z,5.40
2019-02-14T21:00:40.510Z,5.83
2019-02-14T21:03:17.353Z,5.87
2019-02-14T21:05:51.624Z,5.70
2019-02-14T21:08:25.889Z,5.20
2019-02-14T21:10:58.822Z,5.87
2019-02-14T21:13:29.928Z,5.57
2019-02-14T21:16:03.525Z,5.40
2019-02-14T21:18:36.038Z,5.43
2019-02-14T21:21:08.280Z,5.67
2019-02-14T21:23:41.391Z,5.47
2019-02-14T21:26:13.912Z,5.27
2019-02-14T21:28:44.655Z,5.30
2019-02-14T21:31:16.823Z,5.70
2019-02-14T21:33:48.322Z,5.57
2019-02-14T21:36:20.323Z,5.80
2019-02-14T21:38:53.038Z,5.47
2019-02-14T21:41:24.424Z,5.90
2019-02-14T21:43:56.915Z,5.40
2019-02-14T21:46:28.401Z,5.63
2019-02-14T21:48:59.546Z,5.30
2019-02-14T21:51:30.128Z,5.60
2019-02-14T21:54:04.705Z,5.30
2019-02-14T21:56:36.772Z,6.07
2019-02-14T21:59:06.940Z,5.60
2019-02-14T22:01:42.501Z,6.27
2019-02-14T22:04:14.492Z,6.17
2019-02-14T22:06:46.980Z,6.20
2019-02-14T22:09:18.193Z,6.07
2019-02-14T22:11:49.387Z,5.63
2019-02-14T22:14:20.620Z,6.00
2019-02-14T22:16:52.569Z,5.90
2019-02-14T22:19:23.056Z,5.90
2019-02-14T22:21:55.899Z,6.40
2019-02-14T22:24:26.459Z,5.70
2019-02-14T22:26:56.706Z,6.37
2019-02-14T22:29:27.627Z,5.90
2019-02-14T22:31:59.614Z,5.77
2019-02-14T22:34:31.421Z,5.93
2019-02-14T22:37:01.998Z,5.87
2019-02-14T22:39:32.214Z,6.07
2019-02-14T22:42:57.352Z,5.00
2019-02-14T22:45:30.716Z,5.63
2019-02-14T22:48:01.405Z,5.43
2019-02-14T22:50:31.587Z,5.63
2019-02-14T22:53:02.631Z,6.23
2019-02-14T22:55:33.116Z,5.93
2019-02-14T22:58:05.785Z,6.60
2019-02-14T23:00:55.018Z,6.23
2019-02-14T23:03:28.541Z,5.73
2019-02-14T23:05:59.678Z,6.20
2019-02-14T23:08:36.580Z,5.57
2019-02-14T23:11:10.475Z,5.37
2019-02-14T23:13:48.833Z,5.93
2019-02-14T23:16:21.293Z,5.83
2019-02-14T23:19:08.274Z,6.23
2019-02-14T23:21:39.826Z,6.10
2019-02-14T23:24:12.166Z,5.70
2019-02-14T23:26:52.532Z,5.57
2019-02-14T23:29:24.127Z,5.87
2019-02-14T23:31:55.522Z,5.87
2019-02-14T23:34:31.496Z,5.20
2019-02-14T23:37:03.012Z,5.77
2019-02-14T23:39:34.034Z,5.93
2019-02-14T23:42:06.068Z,5.90
2019-02-14T23:44:38.451Z,5.40
2019-02-14T23:47:11.116Z,5.63
2019-02-14T23:49:42.302Z,6.03
2019-02-14T23:52:13.489Z,5.60
2019-02-14T23:54:44.282Z,5.80
2019-02-14T23:57:14.830Z,5.40
2019-02-14T23:59:45.709Z,6.47
